createdAt,value
2023-03-26T00:01:23.713Z,10.02
2023-03-26T00:03:27.747Z,10.10
2023-03-26T00:05:32.147Z,10.07
2023-03-26T00:07:34.987Z,10.03
2023-03-26T00:09:39.336Z,9.91
2023-03-26T00:11:43.022Z,9.90
2023-03-26T00:13:46.793Z,9.84
2023-03-26T00:15:49.612Z,9.76
2023-03-26T00:17:54.133Z,9.61
2023-03-26T00:19:59.673Z,9.50
2023-03-26T00:22:03.661Z,9.38
2023-03-26T00:24:10.129Z,9.34
2023-03-26T00:26:16.329Z,9.28
2023-03-26T00:28:22.256Z,9.26
2023-03-26T00:30:25.308Z,9.28
2023-03-26T00:32:29.629Z,9.41
2023-03-26T00:34:34.375Z,9.44
2023-03-26T00:36:37.392Z,9.52
2023-03-26T00:38:40.274Z,9.54
2023-03-26T00:40:45.570Z,9.49
2023-03-26T00:42:49.733Z,9.52
2023-03-26T00:44:54.925Z,9.51
2023-03-26T00:46:57.753Z,9.54
2023-03-26T00:49:01.890Z,9.56
2023-03-26T00:51:05.800Z,9.55
2023-03-26T00:53:12.012Z,9.63
2023-03-26T00:55:15.995Z,9.64
2023-03-26T00:57:34.532Z,9.71
2023-03-26T00:59:40.442Z,9.67
2023-03-26T01:01:44.856Z,9.62
2023-03-26T01:04:04.862Z,9.60
2023-03-26T01:06:13.655Z,9.54
2023-03-26T01:08:25.986Z,9.54
2023-03-26T01:10:29.996Z,9.58
2023-03-26T01:12:33.015Z,9.64
2023-03-26T01:14:36.178Z,9.47
2023-03-26T01:16:44.918Z,9.48
2023-03-26T01:18:49.127Z,9.35
2023-03-26T01:20:58.489Z,9.16
2023-03-26T01:23:06.200Z,9.10
2023-03-26T01:25:10.601Z,9.20
2023-03-26T01:27:24.210Z,9.24
2023-03-26T01:29:34.184Z,9.20
2023-03-26T01:31:46.284Z,9.29
2023-03-26T01:33:53.252Z,9.34
2023-03-26T01:36:02.451Z,9.31
2023-03-26T01:38:18.503Z,9.38
2023-03-26T01:40:28.019Z,9.52
2023-03-26T01:42:37.171Z,9.44
2023-03-26T01:44:46.607Z,9.36
2023-03-26T01:46:50.902Z,9.36
2023-03-26T01:48:53.909Z,9.44
2023-03-26T01:50:58.780Z,9.52
2023-03-26T01:53:01.671Z,9.54
2023-03-26T01:55:06.444Z,9.61
2023-03-26T01:57:18.643Z,9.55
2023-03-26T01:59:46.343Z,9.57
2023-03-26T02:01:59.159Z,9.54
2023-03-26T02:04:12.260Z,9.57
2023-03-26T02:06:21.386Z,9.65
2023-03-26T02:08:35.583Z,9.61
2023-03-26T02:10:44.088Z,9.66
2023-03-26T02:12:48.594Z,9.70
2023-03-26T02:14:52.962Z,9.63
2023-03-26T02:16:57.084Z,9.69
2023-03-26T02:19:00.371Z,9.77
2023-03-26T02:21:05.316Z,9.78
2023-03-26T02:23:08.765Z,9.78
2023-03-26T02:25:13.918Z,9.78
2023-03-26T02:27:18.401Z,9.82
2023-03-26T02:29:22.770Z,9.85
2023-03-26T02:31:27.212Z,9.83
2023-03-26T02:33:31.155Z,9.82
2023-03-26T02:35:34.388Z,9.82
2023-03-26T02:37:38.961Z,9.85
2023-03-26T02:39:49.273Z,9.76
2023-03-26T02:42:01.474Z,9.73
2023-03-26T02:44:06.392Z,9.68
2023-03-26T02:46:29.086Z,9.54
2023-03-26T02:48:44.200Z,9.52
2023-03-26T02:50:54.594Z,9.56
2023-03-26T02:53:16.254Z,9.36
2023-03-26T02:55:23.421Z,9.33
2023-03-26T02:57:29.078Z,9.39
2023-03-26T02:59:31.825Z,9.46
2023-03-26T03:01:56.134Z,9.51
2023-03-26T03:04:01.384Z,9.60
2023-03-26T03:06:11.214Z,9.63
2023-03-26T03:08:19.338Z,9.73
2023-03-26T03:10:37.744Z,9.81
2023-03-26T03:12:45.667Z,9.91
2023-03-26T03:14:48.484Z,9.93
2023-03-26T03:16:51.572Z,9.95
2023-03-26T03:18:57.833Z,10.00
2023-03-26T03:21:07.369Z,10.01
2023-03-26T03:23:10.160Z,9.99
2023-03-26T03:25:17.405Z,9.99
2023-03-26T03:27:23.782Z,10.04
2023-03-26T03:29:33.545Z,10.02
2023-03-26T03:31:56.475Z,10.05
2023-03-26T03:34:21.667Z,10.00
2023-03-26T03:36:30.304Z,9.99
2023-03-26T03:38:40.241Z,9.97
2023-03-26T03:40:44.783Z,9.98
2023-03-26T03:42:47.996Z,9.96
2023-03-26T03:44:58.031Z,10.09
2023-03-26T03:47:33.028Z,9.95
2023-03-26T03:49:37.329Z,9.92
2023-03-26T03:51:41.009Z,9.91
2023-03-26T03:53:56.533Z,9.91
2023-03-26T03:56:29.081Z,9.86
2023-03-26T03:58:58.208Z,9.83
2023-03-26T04:01:06.972Z,9.81
2023-03-26T04:03:33.121Z,9.83
2023-03-26T04:05:38.617Z,9.86
2023-03-26T04:07:41.508Z,9.84
2023-03-26T04:09:44.308Z,9.87
2023-03-26T04:11:52.325Z,9.83
2023-03-26T04:14:15.334Z,9.77
2023-03-26T04:16:43.975Z,9.76
2023-03-26T04:18:46.718Z,9.82
2023-03-26T04:20:52.286Z,9.79
2023-03-26T04:23:00.484Z,9.78
2023-03-26T04:25:05.169Z,9.82
2023-03-26T04:27:17.019Z,9.78
2023-03-26T04:29:23.967Z,9.74
2023-03-26T04:31:30.371Z,9.69
2023-03-26T04:33:35.939Z,9.66
2023-03-26T04:35:41.694Z,9.67
2023-03-26T04:37:47.683Z,9.69
2023-03-26T04:39:55.391Z,9.67
2023-03-26T04:41:58.959Z,9.69
2023-03-26T04:44:08.893Z,9.69
2023-03-26T04:46:38.044Z,9.66
2023-03-26T04:48:50.995Z,9.68
2023-03-26T04:50:54.109Z,9.67
2023-03-26T04:52:59.927Z,9.66
2023-03-26T04:55:25.630Z,9.62
2023-03-26T04:57:46.098Z,9.67
2023-03-26T05:00:14.776Z,9.60
2023-03-26T05:02:18.830Z,9.56
2023-03-26T05:04:26.662Z,9.58
2023-03-26T05:06:30.310Z,9.57
2023-03-26T05:08:34.711Z,9.56
2023-03-26T05:10:37.627Z,9.58
2023-03-26T05:12:46.435Z,9.56
2023-03-26T05:14:53.618Z,9.58
2023-03-26T05:17:10.645Z,9.65
2023-03-26T05:19:15.079Z,9.71
2023-03-26T05:21:18.047Z,9.67
2023-03-26T05:23:21.020Z,9.65
2023-03-26T05:25:31.431Z,9.66
2023-03-26T05:27:36.132Z,9.62
2023-03-26T05:29:38.868Z,9.62
2023-03-26T05:31:41.682Z,9.68
2023-03-26T05:33:44.568Z,9.59
2023-03-26T05:35:50.581Z,9.57
2023-03-26T05:37:53.490Z,9.65
2023-03-26T05:39:59.794Z,9.56
2023-03-26T05:42:33.254Z,9.58
2023-03-26T05:44:58.907Z,9.63
2023-03-26T05:47:04.509Z,9.66
2023-03-26T05:49:07.633Z,9.58
2023-03-26T05:51:12.366Z,9.56
2023-03-26T05:53:19.186Z,9.59
2023-03-26T05:55:40.757Z,9.54
2023-03-26T05:58:08.189Z,9.50
2023-03-26T06:00:29.528Z,9.51
2023-03-26T06:02:32.930Z,9.54
2023-03-26T06:05:09.814Z,9.54
2023-03-26T06:07:39.021Z,9.52
2023-03-26T06:09:53.876Z,9.44
2023-03-26T06:11:56.892Z,9.38
2023-03-26T06:14:01.643Z,9.40
2023-03-26T06:16:05.268Z,9.43
2023-03-26T06:18:11.009Z,9.35
2023-03-26T06:20:25.533Z,9.33
2023-03-26T06:22:29.472Z,9.38
2023-03-26T06:24:48.546Z,9.48
2023-03-26T06:27:09.832Z,9.47
2023-03-26T06:29:49.048Z,9.47
2023-03-26T06:32:19.758Z,9.51
2023-03-26T06:34:43.479Z,9.41
2023-03-26T06:36:48.638Z,9.43
2023-03-26T06:38:51.692Z,9.39
2023-03-26T06:40:55.050Z,9.47
2023-03-26T06:43:08.606Z,9.47
2023-03-26T06:45:34.514Z,9.46
2023-03-26T06:48:09.770Z,9.42
2023-03-26T06:50:35.623Z,9.42
2023-03-26T06:52:57.823Z,9.42
2023-03-26T06:55:15.772Z,9.47
2023-03-26T06:57:42.644Z,9.42
2023-03-26T07:00:13.437Z,9.47
2023-03-26T07:02:37.272Z,9.51
2023-03-26T07:04:59.379Z,9.49
2023-03-26T07:07:21.722Z,9.59
2023-03-26T07:09:53.809Z,9.67
2023-03-26T07:12:26.977Z,9.65
2023-03-26T07:14:53.007Z,9.64
2023-03-26T07:16:59.088Z,9.64
2023-03-26T07:19:24.777Z,9.65
2023-03-26T07:21:28.224Z,9.58
2023-03-26T07:23:31.584Z,9.59
2023-03-26T07:25:54.978Z,9.62
2023-03-26T07:28:11.503Z,9.64
2023-03-26T07:30:48.019Z,9.56
2023-03-26T07:33:17.029Z,9.60
2023-03-26T07:36:07.906Z,9.56
2023-03-26T07:38:40.890Z,9.54
2023-03-26T07:41:09.712Z,9.54
2023-03-26T07:43:58.056Z,9.57
2023-03-26T07:46:29.684Z,9.60
2023-03-26T07:49:00.001Z,9.64
2023-03-26T07:51:19.953Z,9.61
2023-03-26T07:53:30.152Z,9.62
2023-03-26T07:55:53.630Z,9.66
2023-03-26T07:58:33.469Z,9.60
2023-03-26T08:01:10.044Z,9.62
2023-03-26T08:03:26.788Z,9.52
2023-03-26T08:05:33.556Z,9.50
2023-03-26T08:08:07.403Z,9.43
2023-03-26T08:10:22.504Z,9.25
2023-03-26T08:12:47.287Z,9.01
2023-03-26T08:14:58.271Z,9.10
2023-03-26T08:17:06.732Z,9.14
2023-03-26T08:19:28.576Z,9.19
2023-03-26T08:21:37.988Z,9.18
2023-03-26T08:24:01.528Z,9.14
2023-03-26T08:26:10.049Z,9.03
2023-03-26T08:28:24.123Z,9.11
2023-03-26T08:30:28.237Z,9.14
2023-03-26T08:32:31.591Z,9.20
2023-03-26T08:34:34.480Z,9.26
2023-03-26T08:36:37.286Z,9.31
2023-03-26T08:38:40.052Z,9.32
2023-03-26T08:41:17.032Z,9.40
2023-03-26T08:43:48.965Z,9.40
2023-03-26T08:46:23.214Z,9.50
2023-03-26T08:49:00.461Z,9.58
2023-03-26T08:51:44.800Z,9.54
2023-03-26T08:54:36.152Z,9.49
2023-03-26T08:56:53.087Z,9.52
2023-03-26T08:59:20.056Z,9.65
2023-03-26T09:02:07.850Z,9.70
2023-03-26T09:04:42.739Z,9.65
2023-03-26T09:07:14.252Z,9.69
2023-03-26T09:09:59.125Z,9.87
2023-03-26T09:12:52.678Z,10.11
2023-03-26T09:15:35.043Z,10.32
2023-03-26T09:18:28.618Z,10.24
2023-03-26T09:24:19.708Z,10.50
2023-03-26T09:26:27.886Z,10.38
2023-03-26T09:29:14.485Z,10.39
2023-03-26T09:31:48.211Z,10.41
2023-03-26T09:34:00.500Z,10.40
2023-03-26T09:36:22.340Z,10.50
2023-03-26T09:38:46.074Z,10.34
2023-03-26T09:40:59.709Z,10.38
2023-03-26T09:43:26.541Z,10.46
2023-03-26T09:45:54.498Z,10.38
2023-03-26T09:48:39.791Z,10.39
2023-03-26T09:50:55.185Z,10.47
2023-03-26T09:53:09.333Z,10.64
2023-03-26T09:55:29.919Z,10.76
2023-03-26T09:57:53.821Z,10.86
2023-03-26T10:00:23.996Z,11.07
2023-03-26T10:02:45.925Z,11.43
2023-03-26T10:05:41.462Z,11.51
2023-03-26T10:08:09.347Z,11.94
2023-03-26T10:10:22.678Z,12.28
2023-03-26T10:12:34.709Z,12.55
2023-03-26T10:14:45.241Z,12.83
2023-03-26T10:17:01.385Z,12.88
2023-03-26T10:19:22.135Z,12.93
2023-03-26T10:21:36.018Z,12.89
2023-03-26T10:24:07.905Z,12.90
2023-03-26T10:26:41.689Z,12.86
2023-03-26T10:29:20.260Z,12.88
2023-03-26T10:31:41.367Z,12.62
2023-03-26T10:33:54.992Z,12.53
2023-03-26T10:36:13.275Z,12.34
2023-03-26T10:38:23.365Z,12.04
2023-03-26T10:40:32.146Z,11.91
2023-03-26T10:42:56.466Z,11.56
2023-03-26T10:45:15.033Z,11.50
2023-03-26T10:47:39.115Z,11.44
2023-03-26T10:50:22.650Z,11.32
2023-03-26T10:52:35.662Z,11.22
2023-03-26T10:54:49.514Z,11.29
2023-03-26T10:56:52.714Z,11.28
2023-03-26T10:58:57.343Z,11.21
2023-03-26T11:01:04.694Z,11.28
2023-03-26T11:03:43.982Z,11.29
2023-03-26T11:05:54.006Z,11.53
2023-03-26T11:08:04.719Z,11.73
2023-03-26T11:10:12.272Z,11.87
2023-03-26T11:12:28.465Z,12.09
2023-03-26T11:14:39.723Z,12.35
2023-03-26T11:16:55.337Z,12.31
2023-03-26T11:19:05.532Z,12.37
2023-03-26T11:21:19.056Z,12.19
2023-03-26T11:23:36.458Z,12.16
2023-03-26T11:25:49.397Z,12.18
2023-03-26T11:28:07.073Z,12.19
2023-03-26T11:30:22.270Z,12.40
2023-03-26T11:32:27.115Z,12.29
2023-03-26T11:34:37.939Z,12.17
2023-03-26T11:36:45.096Z,12.36
2023-03-26T11:38:50.316Z,12.68
2023-03-26T11:41:00.344Z,12.56
2023-03-26T11:43:27.068Z,12.67
2023-03-26T11:45:33.873Z,12.46
2023-03-26T11:47:41.654Z,12.32
2023-03-26T11:49:50.067Z,12.29
2023-03-26T11:51:53.345Z,12.17
2023-03-26T11:53:57.654Z,12.09
2023-03-26T11:56:04.067Z,12.02
2023-03-26T11:58:24.237Z,11.97
2023-03-26T12:00:30.212Z,11.85
2023-03-26T12:02:40.313Z,11.73
2023-03-26T12:04:45.642Z,11.70
2023-03-26T12:06:57.650Z,11.58
2023-03-26T12:09:00.738Z,11.52
2023-03-26T12:11:09.284Z,11.41
2023-03-26T12:13:29.478Z,11.28
2023-03-26T12:15:38.811Z,11.21
2023-03-26T12:17:42.240Z,11.20
2023-03-26T12:19:46.618Z,11.15
2023-03-26T12:21:51.098Z,11.14
2023-03-26T12:24:00.231Z,11.23
2023-03-26T12:26:15.041Z,11.29
2023-03-26T12:28:19.792Z,11.49
2023-03-26T12:30:23.591Z,11.69
2023-03-26T12:32:43.387Z,11.89
2023-03-26T12:34:50.586Z,11.96
2023-03-26T12:36:55.993Z,12.18
2023-03-26T12:39:17.115Z,12.37
2023-03-26T12:44:42.183Z,12.64
2023-03-26T12:44:50.058Z,12.92
2023-03-26T12:47:56.512Z,13.08
2023-03-26T12:49:12.496Z,13.19
2023-03-26T12:51:27.676Z,13.37
2023-03-26T12:53:40.954Z,13.38
2023-03-26T12:56:00.249Z,13.25
2023-03-26T12:58:15.431Z,13.03
2023-03-26T13:00:28.826Z,13.10
2023-03-26T13:02:50.752Z,13.16
2023-03-26T13:05:09.603Z,13.09
2023-03-26T13:07:22.310Z,13.10
2023-03-26T13:09:47.728Z,13.08
2023-03-26T13:12:03.714Z,13.18
2023-03-26T13:14:19.524Z,13.30
2023-03-26T13:16:29.784Z,13.34
2023-03-26T13:18:43.514Z,13.41
2023-03-26T13:20:52.595Z,13.51
2023-03-26T13:23:03.225Z,13.66
2023-03-26T13:25:20.594Z,13.84
2023-03-26T13:27:42.877Z,13.99
2023-03-26T13:29:56.487Z,14.12
2023-03-26T13:32:09.264Z,14.26
2023-03-26T13:34:23.074Z,14.38
2023-03-26T13:36:37.641Z,14.35
2023-03-26T13:38:58.545Z,14.27
2023-03-26T13:41:08.273Z,13.95
2023-03-26T13:43:27.881Z,13.83
2023-03-26T13:45:45.446Z,13.70
2023-03-26T13:47:51.886Z,13.69
2023-03-26T13:50:00.507Z,13.55
2023-03-26T13:52:09.941Z,13.55
2023-03-26T13:54:19.646Z,13.48
2023-03-26T13:56:28.740Z,13.57
2023-03-26T13:58:39.436Z,13.53
2023-03-26T14:01:04.746Z,13.40
2023-03-26T14:03:17.405Z,13.27
2023-03-26T14:05:25.843Z,13.27
2023-03-26T14:07:35.409Z,13.25
2023-03-26T14:09:45.587Z,13.24
2023-03-26T14:11:59.364Z,13.23
2023-03-26T14:14:09.876Z,13.19
2023-03-26T14:16:18.545Z,13.08
2023-03-26T14:18:32.252Z,12.99
2023-03-26T14:21:10.821Z,13.04
2023-03-26T14:23:35.266Z,13.10
2023-03-26T14:26:05.634Z,12.99
2023-03-26T14:28:24.255Z,13.07
2023-03-26T14:30:56.472Z,13.07
2023-03-26T14:33:27.433Z,12.96
2023-03-26T14:35:38.509Z,12.89
2023-03-26T14:38:01.473Z,12.83
2023-03-26T14:40:31.922Z,12.78
2023-03-26T14:42:42.549Z,12.53
2023-03-26T14:45:15.523Z,12.33
2023-03-26T14:47:21.553Z,12.33
2023-03-26T14:49:53.686Z,12.22
2023-03-26T14:52:04.625Z,12.19
2023-03-26T14:54:12.065Z,12.08
2023-03-26T14:56:43.319Z,11.87
2023-03-26T14:59:17.877Z,11.73
2023-03-26T15:01:27.312Z,11.72
2023-03-26T15:04:03.991Z,11.62
2023-03-26T15:06:41.119Z,11.83
2023-03-26T15:09:11.622Z,11.86
2023-03-26T15:11:26.003Z,11.75
2023-03-26T15:13:50.065Z,11.63
2023-03-26T15:16:25.590Z,11.67
2023-03-26T15:19:13.940Z,11.27
2023-03-26T15:21:53.385Z,11.39
2023-03-26T15:24:25.497Z,11.43
2023-03-26T15:27:08.310Z,11.38
2023-03-26T15:29:33.968Z,11.42
2023-03-26T15:32:16.109Z,11.30
2023-03-26T15:34:51.551Z,11.27
2023-03-26T15:37:42.343Z,11.35
2023-03-26T15:40:08.250Z,11.21
2023-03-26T15:42:18.554Z,11.22
2023-03-26T15:44:40.979Z,11.08
2023-03-26T15:47:19.176Z,11.02
2023-03-26T15:49:31.556Z,10.90
2023-03-26T15:51:52.165Z,10.95
2023-03-26T15:54:00.966Z,10.76
2023-03-26T15:56:27.375Z,10.69
2023-03-26T15:58:34.614Z,10.71
2023-03-26T16:00:45.254Z,10.60
2023-03-26T16:03:00.104Z,10.52
2023-03-26T16:05:26.475Z,10.43
2023-03-26T16:07:55.251Z,10.33
2023-03-26T16:10:18.191Z,10.44
2023-03-26T16:12:33.982Z,10.33
2023-03-26T16:14:46.768Z,10.12
2023-03-26T16:16:59.545Z,9.99
2023-03-26T16:19:41.126Z,10.09
2023-03-26T16:21:56.193Z,10.26
2023-03-26T16:24:18.792Z,10.12
2023-03-26T16:26:26.451Z,10.12
2023-03-26T16:28:33.494Z,10.01
2023-03-26T16:30:36.930Z,9.96
2023-03-26T16:32:43.026Z,10.04
2023-03-26T16:34:53.938Z,10.05
2023-03-26T16:37:00.452Z,10.12
2023-03-26T16:39:25.256Z,10.21
2023-03-26T16:41:31.247Z,10.05
2023-03-26T16:43:45.082Z,9.90
2023-03-26T16:45:53.697Z,10.09
2023-03-26T16:48:07.785Z,10.25
2023-03-26T16:50:19.883Z,10.29
2023-03-26T16:52:31.232Z,10.21
2023-03-26T16:54:46.010Z,10.20
2023-03-26T16:56:59.567Z,10.20
2023-03-26T16:59:09.352Z,10.08
2023-03-26T17:01:30.207Z,10.20
2023-03-26T17:03:54.505Z,10.25
2023-03-26T17:06:06.340Z,10.34
2023-03-26T17:08:35.974Z,10.39
2023-03-26T17:10:48.253Z,10.37
2023-03-26T17:12:56.544Z,10.38
2023-03-26T17:15:08.451Z,10.25
2023-03-26T17:17:26.114Z,10.16
2023-03-26T17:19:36.550Z,10.20
2023-03-26T17:21:55.503Z,10.25
2023-03-26T17:24:07.219Z,10.31
2023-03-26T17:26:24.666Z,10.31
2023-03-26T17:28:49.405Z,10.29
2023-03-26T17:31:03.188Z,10.21
2023-03-26T17:33:16.352Z,10.25
2023-03-26T17:35:35.837Z,10.36
2023-03-26T17:37:45.564Z,10.37
2023-03-26T17:40:36.544Z,10.42
2023-03-26T17:43:04.865Z,10.38
2023-03-26T17:45:17.611Z,10.27
2023-03-26T17:47:34.212Z,10.24
2023-03-26T17:49:40.591Z,10.13
2023-03-26T17:51:50.386Z,10.11
2023-03-26T17:53:53.345Z,10.16
2023-03-26T17:56:00.994Z,10.15
2023-03-26T17:58:07.124Z,10.24
2023-03-26T18:00:18.221Z,10.28
2023-03-26T18:02:28.634Z,10.41
2023-03-26T18:04:35.690Z,10.30
2023-03-26T18:06:55.471Z,10.34
2023-03-26T18:09:11.394Z,10.26
2023-03-26T18:11:52.581Z,10.21
2023-03-26T18:14:29.699Z,10.16
2023-03-26T18:16:39.633Z,9.98
2023-03-26T18:18:49.506Z,10.05
2023-03-26T18:20:54.579Z,10.09
2023-03-26T18:22:57.573Z,10.03
2023-03-26T18:25:03.075Z,10.01
2023-03-26T18:27:12.276Z,9.93
2023-03-26T18:29:23.708Z,9.91
2023-03-26T18:31:27.885Z,9.93
2023-03-26T18:33:42.817Z,9.95
2023-03-26T18:35:47.295Z,10.00
2023-03-26T18:37:53.324Z,10.08
2023-03-26T18:39:59.329Z,10.00
2023-03-26T18:42:02.297Z,9.92
2023-03-26T18:44:07.273Z,9.81
2023-03-26T18:46:13.259Z,9.81
2023-03-26T18:48:20.451Z,9.71
2023-03-26T18:50:27.751Z,9.67
2023-03-26T18:52:32.992Z,9.63
2023-03-26T18:54:37.122Z,9.74
2023-03-26T18:56:41.880Z,9.72
2023-03-26T18:58:51.986Z,9.63
2023-03-26T19:00:59.688Z,9.54
2023-03-26T19:03:06.902Z,9.57
2023-03-26T19:05:15.120Z,9.49
2023-03-26T19:07:23.293Z,9.44
2023-03-26T19:09:31.945Z,9.46
2023-03-26T19:11:40.216Z,9.30
2023-03-26T19:13:43.102Z,9.36
2023-03-26T19:15:47.364Z,9.46
2023-03-26T19:17:56.542Z,9.56
2023-03-26T19:20:01.673Z,9.50
2023-03-26T19:22:06.952Z,9.53
2023-03-26T19:24:11.867Z,9.48
2023-03-26T19:26:14.841Z,9.34
2023-03-26T19:28:20.949Z,9.45
2023-03-26T19:30:30.097Z,9.48
2023-03-26T19:32:34.433Z,9.43
2023-03-26T19:34:40.434Z,9.28
2023-03-26T19:36:58.010Z,9.15
2023-03-26T19:39:12.567Z,9.08
2023-03-26T19:41:21.975Z,9.14
2023-03-26T19:43:26.278Z,9.12
2023-03-26T19:45:29.823Z,9.06
2023-03-26T19:47:52.023Z,9.03
2023-03-26T19:50:01.202Z,9.00
2023-03-26T19:52:13.565Z,9.03
2023-03-26T19:54:19.122Z,8.94
2023-03-26T19:56:22.814Z,8.91
2023-03-26T19:58:27.164Z,8.79
2023-03-26T20:00:30.579Z,8.69
2023-03-26T20:02:33.471Z,8.71
2023-03-26T20:04:36.365Z,8.64
2023-03-26T20:06:43.698Z,8.53
2023-03-26T20:08:50.523Z,8.54
2023-03-26T20:10:54.696Z,8.47
2023-03-26T20:12:58.337Z,8.49
2023-03-26T20:15:01.914Z,8.56
2023-03-26T20:17:05.693Z,8.60
2023-03-26T20:19:08.766Z,8.62
2023-03-26T20:21:12.828Z,8.71
2023-03-26T20:23:17.542Z,8.83
2023-03-26T20:25:25.633Z,8.90
2023-03-26T20:27:29.954Z,8.81
2023-03-26T20:29:32.881Z,8.77
2023-03-26T20:31:35.739Z,8.80
2023-03-26T20:33:39.550Z,8.88
2023-03-26T20:35:43.061Z,8.85
2023-03-26T20:37:46.059Z,8.93
2023-03-26T20:39:48.888Z,8.91
2023-03-26T20:41:54.608Z,8.83
2023-03-26T20:43:57.654Z,8.79
2023-03-26T20:46:00.662Z,8.67
2023-03-26T20:48:03.621Z,8.73
2023-03-26T20:50:07.531Z,8.73
2023-03-26T20:52:14.092Z,8.74
2023-03-26T20:54:18.893Z,8.76
2023-03-26T20:56:22.136Z,8.74
2023-03-26T20:58:31.402Z,8.87
2023-03-26T21:00:37.062Z,8.97
2023-03-26T21:02:41.969Z,8.96
2023-03-26T21:04:47.253Z,8.99
2023-03-26T21:06:50.834Z,9.07
2023-03-26T21:08:55.046Z,9.12
2023-03-26T21:11:01.968Z,9.16
2023-03-26T21:13:08.500Z,9.05
2023-03-26T21:15:22.825Z,8.96
2023-03-26T21:17:27.091Z,8.86
2023-03-26T21:19:30.455Z,8.80
2023-03-26T21:21:47.466Z,8.85
2023-03-26T21:23:59.248Z,8.86
2023-03-26T21:26:07.649Z,8.93
2023-03-26T21:28:32.229Z,8.86
2023-03-26T21:30:44.388Z,8.88
2023-03-26T21:32:48.048Z,8.89
2023-03-26T21:34:58.160Z,8.95
2023-03-26T21:37:03.001Z,8.86
2023-03-26T21:39:06.485Z,8.88
2023-03-26T21:41:17.141Z,8.91
2023-03-26T21:43:21.405Z,8.82
2023-03-26T21:45:24.833Z,8.84
2023-03-26T21:47:29.563Z,8.73
2023-03-26T21:49:33.098Z,8.79
2023-03-26T21:51:36.652Z,8.84
2023-03-26T21:53:39.972Z,8.92
2023-03-26T21:55:54.590Z,8.88
2023-03-26T21:58:23.019Z,9.01
2023-03-26T22:00:41.125Z,8.80
2023-03-26T22:03:05.239Z,8.78
2023-03-26T22:05:15.319Z,8.69
2023-03-26T22:07:21.626Z,8.73
2023-03-26T22:09:33.883Z,8.75
2023-03-26T22:11:38.890Z,8.86
2023-03-26T22:13:42.145Z,8.79
2023-03-26T22:15:46.087Z,8.79
2023-03-26T22:17:53.634Z,8.88
2023-03-26T22:19:58.198Z,8.81
2023-03-26T22:22:01.570Z,8.71
2023-03-26T22:24:06.908Z,8.73
2023-03-26T22:26:09.735Z,8.81
2023-03-26T22:28:12.906Z,8.87
2023-03-26T22:30:16.425Z,8.88
2023-03-26T22:32:19.220Z,8.81
2023-03-26T22:34:23.007Z,8.66
2023-03-26T22:36:27.330Z,8.78
2023-03-26T22:38:30.633Z,8.85
2023-03-26T22:40:33.366Z,8.77
2023-03-26T22:42:36.532Z,8.77
2023-03-26T22:44:40.073Z,8.80
2023-03-26T22:46:44.013Z,8.62
2023-03-26T22:48:48.265Z,8.46
2023-03-26T22:50:58.364Z,8.59
2023-03-26T22:53:02.511Z,8.67
2023-03-26T22:55:05.842Z,8.53
2023-03-26T22:57:08.781Z,8.45
2023-03-26T22:59:11.682Z,8.47
2023-03-26T23:01:17.546Z,8.46
2023-03-26T23:03:21.848Z,8.35
2023-03-26T23:05:38.671Z,8.33
2023-03-26T23:07:42.259Z,8.35
2023-03-26T23:09:46.439Z,8.37
2023-03-26T23:11:49.359Z,8.33
2023-03-26T23:13:54.752Z,8.07
2023-03-26T23:15:57.873Z,8.14
2023-03-26T23:18:01.912Z,8.16
2023-03-26T23:20:13.529Z,8.14
2023-03-26T23:22:16.659Z,8.23
2023-03-26T23:24:19.707Z,8.18
2023-03-26T23:26:24.189Z,8.17
2023-03-26T23:28:27.515Z,8.17
2023-03-26T23:30:30.407Z,8.29
2023-03-26T23:32:37.635Z,8.20
2023-03-26T23:34:52.328Z,8.38
2023-03-26T23:36:55.542Z,8.26
2023-03-26T23:38:58.854Z,8.32
2023-03-26T23:41:01.622Z,8.34
2023-03-26T23:43:05.791Z,8.20
2023-03-26T23:45:09.329Z,8.11
2023-03-26T23:47:12.122Z,8.21
2023-03-26T23:49:15.212Z,8.19
2023-03-26T23:51:19.795Z,8.16
2023-03-26T23:53:24.693Z,8.01
2023-03-26T23:55:28.258Z,7.99
2023-03-26T23:57:31.808Z,8.17
2023-03-26T23:59:36.093Z,8.15
